sensor_id;sensor_type;location;lat;lon;timestamp;P1;durP1;ratioP1;P2;durP2;ratioP2
75167;SDS011;63748;48.088;11.476;2023-05-23T00:00:53;7.90;;;5.50;;
75167;SDS011;63748;48.088;11.476;2023-05-23T00:03:19;10.15;;;7.20;;
75167;SDS011;63748;48.088;11.476;2023-05-23T00:05:47;9.25;;;6.05;;
75167;SDS011;63748;48.088;11.476;2023-05-23T00:08:13;8.32;;;6.40;;
75167;SDS011;63748;48.088;11.476;2023-05-23T00:10:40;7.95;;;5.30;;
75167;SDS011;63748;48.088;11.476;2023-05-23T00:13:06;8.30;;;5.25;;
75167;SDS011;63748;48.088;11.476;2023-05-23T00:15:36;9.30;;;6.60;;
75167;SDS011;63748;48.088;11.476;2023-05-23T00:18:03;9.93;;;6.55;;
75167;SDS011;63748;48.088;11.476;2023-05-23T00:20:29;8.55;;;6.10;;
75167;SDS011;63748;48.088;11.476;2023-05-23T00:22:56;7.93;;;6.03;;
75167;SDS011;63748;48.088;11.476;2023-05-23T00:25:25;10.90;;;6.60;;
75167;SDS011;63748;48.088;11.476;2023-05-23T00:27:58;9.70;;;6.40;;
75167;SDS011;63748;48.088;11.476;2023-05-23T00:30:24;7.47;;;5.47;;
75167;SDS011;63748;48.088;11.476;2023-05-23T00:32:51;8.18;;;5.47;;
75167;SDS011;63748;48.088;11.476;2023-05-23T00:35:18;8.73;;;5.68;;
75167;SDS011;63748;48.088;11.476;2023-05-23T00:37:44;9.85;;;6.38;;
75167;SDS011;63748;48.088;11.476;2023-05-23T00:40:11;8.48;;;6.57;;
75167;SDS011;63748;48.088;11.476;2023-05-23T00:42:37;9.77;;;6.70;;
75167;SDS011;63748;48.088;11.476;2023-05-23T00:45:04;8.85;;;5.93;;
75167;SDS011;63748;48.088;11.476;2023-05-23T00:47:30;9.40;;;6.05;;
75167;SDS011;63748;48.088;11.476;2023-05-23T00:49:56;8.75;;;6.10;;
75167;SDS011;63748;48.088;11.476;2023-05-23T00:52:23;7.97;;;5.38;;
75167;SDS011;63748;48.088;11.476;2023-05-23T00:54:49;9.43;;;5.70;;
75167;SDS011;63748;48.088;11.476;2023-05-23T00:57:15;9.75;;;6.55;;
75167;SDS011;63748;48.088;11.476;2023-05-23T00:59:41;9.98;;;6.80;;
75167;SDS011;63748;48.088;11.476;2023-05-23T01:02:08;9.45;;;6.05;;
75167;SDS011;63748;48.088;11.476;2023-05-23T01:04:35;10.98;;;6.38;;
75167;SDS011;63748;48.088;11.476;2023-05-23T01:07:01;9.20;;;6.15;;
75167;SDS011;63748;48.088;11.476;2023-05-23T01:09:27;12.38;;;6.30;;
75167;SDS011;63748;48.088;11.476;2023-05-23T01:14:27;8.30;;;5.80;;
75167;SDS011;63748;48.088;11.476;2023-05-23T01:16:57;9.75;;;6.05;;
75167;SDS011;63748;48.088;11.476;2023-05-23T01:22:05;9.15;;;6.22;;
75167;SDS011;63748;48.088;11.476;2023-05-23T01:24:56;9.93;;;6.25;;
75167;SDS011;63748;48.088;11.476;2023-05-23T01:29:55;8.48;;;6.25;;
75167;SDS011;63748;48.088;11.476;2023-05-23T01:32:22;9.15;;;6.18;;
75167;SDS011;63748;48.088;11.476;2023-05-23T01:34:51;10.20;;;6.60;;
75167;SDS011;63748;48.088;11.476;2023-05-23T01:39:43;10.07;;;6.32;;
75167;SDS011;63748;48.088;11.476;2023-05-23T01:42:10;9.40;;;6.05;;
75167;SDS011;63748;48.088;11.476;2023-05-23T01:44:36;10.05;;;6.28;;
75167;SDS011;63748;48.088;11.476;2023-05-23T01:47:03;9.00;;;5.75;;
75167;SDS011;63748;48.088;11.476;2023-05-23T01:49:30;10.50;;;6.15;;
75167;SDS011;63748;48.088;11.476;2023-05-23T01:51:57;9.13;;;6.43;;
75167;SDS011;63748;48.088;11.476;2023-05-23T01:54:24;10.23;;;6.18;;
75167;SDS011;63748;48.088;11.476;2023-05-23T01:56:50;9.07;;;6.82;;
75167;SDS011;63748;48.088;11.476;2023-05-23T01:59:17;9.65;;;6.38;;
75167;SDS011;63748;48.088;11.476;2023-05-23T02:01:43;11.80;;;6.15;;
75167;SDS011;63748;48.088;11.476;2023-05-23T02:04:09;10.88;;;7.15;;
75167;SDS011;63748;48.088;11.476;2023-05-23T02:06:35;9.35;;;6.20;;
75167;SDS011;63748;48.088;11.476;2023-05-23T02:09:01;10.55;;;6.80;;
75167;SDS011;63748;48.088;11.476;2023-05-23T02:11:27;11.63;;;6.57;;
75167;SDS011;63748;48.088;11.476;2023-05-23T02:13:53;11.90;;;8.13;;
75167;SDS011;63748;48.088;11.476;2023-05-23T02:16:20;9.73;;;6.05;;
75167;SDS011;63748;48.088;11.476;2023-05-23T02:18:47;10.15;;;6.50;;
75167;SDS011;63748;48.088;11.476;2023-05-23T02:21:13;12.00;;;6.88;;
75167;SDS011;63748;48.088;11.476;2023-05-23T02:23:39;10.43;;;8.38;;
75167;SDS011;63748;48.088;11.476;2023-05-23T02:26:05;9.60;;;6.50;;
75167;SDS011;63748;48.088;11.476;2023-05-23T02:28:31;11.07;;;7.20;;
75167;SDS011;63748;48.088;11.476;2023-05-23T02:30:57;11.05;;;6.93;;
75167;SDS011;63748;48.088;11.476;2023-05-23T02:33:23;11.93;;;8.13;;
75167;SDS011;63748;48.088;11.476;2023-05-23T02:35:49;10.77;;;7.43;;
75167;SDS011;63748;48.088;11.476;2023-05-23T02:38:15;11.82;;;7.30;;
75167;SDS011;63748;48.088;11.476;2023-05-23T02:40:43;9.77;;;6.55;;
75167;SDS011;63748;48.088;11.476;2023-05-23T02:43:09;9.52;;;6.68;;
75167;SDS011;63748;48.088;11.476;2023-05-23T02:45:35;9.32;;;7.18;;
75167;SDS011;63748;48.088;11.476;2023-05-23T02:48:01;12.90;;;7.03;;
75167;SDS011;63748;48.088;11.476;2023-05-23T02:50:27;13.18;;;7.50;;
75167;SDS011;63748;48.088;11.476;2023-05-23T02:52:53;10.07;;;6.95;;
75167;SDS011;63748;48.088;11.476;2023-05-23T02:55:19;12.98;;;7.85;;
75167;SDS011;63748;48.088;11.476;2023-05-23T02:57:46;11.98;;;7.88;;
75167;SDS011;63748;48.088;11.476;2023-05-23T03:00:12;13.25;;;7.85;;
75167;SDS011;63748;48.088;11.476;2023-05-23T03:02:39;12.15;;;8.07;;
75167;SDS011;63748;48.088;11.476;2023-05-23T03:05:05;10.18;;;7.50;;
75167;SDS011;63748;48.088;11.476;2023-05-23T03:07:31;11.70;;;6.93;;
75167;SDS011;63748;48.088;11.476;2023-05-23T03:09:58;9.68;;;6.68;;
75167;SDS011;63748;48.088;11.476;2023-05-23T03:12:26;13.15;;;7.68;;
75167;SDS011;63748;48.088;11.476;2023-05-23T03:14:52;11.23;;;8.20;;
75167;SDS011;63748;48.088;11.476;2023-05-23T03:17:18;12.85;;;8.23;;
75167;SDS011;63748;48.088;11.476;2023-05-23T03:19:44;11.80;;;8.05;;
75167;SDS011;63748;48.088;11.476;2023-05-23T03:22:10;13.45;;;7.90;;
75167;SDS011;63748;48.088;11.476;2023-05-23T03:24:36;11.45;;;7.78;;
75167;SDS011;63748;48.088;11.476;2023-05-23T03:27:02;15.60;;;8.05;;
75167;SDS011;63748;48.088;11.476;2023-05-23T03:29:28;14.35;;;7.55;;
75167;SDS011;63748;48.088;11.476;2023-05-23T03:31:54;13.15;;;8.40;;
75167;SDS011;63748;48.088;11.476;2023-05-23T03:34:20;13.05;;;8.00;;
75167;SDS011;63748;48.088;11.476;2023-05-23T03:36:47;12.13;;;8.30;;
75167;SDS011;63748;48.088;11.476;2023-05-23T03:39:13;13.73;;;8.32;;
75167;SDS011;63748;48.088;11.476;2023-05-23T03:41:39;11.45;;;7.50;;
75167;SDS011;63748;48.088;11.476;2023-05-23T03:44:06;12.73;;;7.93;;
75167;SDS011;63748;48.088;11.476;2023-05-23T03:46:32;12.40;;;7.65;;
75167;SDS011;63748;48.088;11.476;2023-05-23T03:48:58;12.70;;;7.45;;
75167;SDS011;63748;48.088;11.476;2023-05-23T03:51:24;12.48;;;8.23;;
75167;SDS011;63748;48.088;11.476;2023-05-23T03:53:50;14.13;;;9.27;;
75167;SDS011;63748;48.088;11.476;2023-05-23T03:56:16;14.15;;;8.25;;
75167;SDS011;63748;48.088;11.476;2023-05-23T03:58:42;13.98;;;8.32;;
75167;SDS011;63748;48.088;11.476;2023-05-23T04:01:08;12.65;;;7.75;;
75167;SDS011;63748;48.088;11.476;2023-05-23T04:03:34;15.05;;;8.55;;
75167;SDS011;63748;48.088;11.476;2023-05-23T04:06:01;16.70;;;8.85;;
75167;SDS011;63748;48.088;11.476;2023-05-23T04:08:27;14.35;;;8.63;;
75167;SDS011;63748;48.088;11.476;2023-05-23T04:10:54;11.93;;;7.45;;
75167;SDS011;63748;48.088;11.476;2023-05-23T04:13:20;13.45;;;9.00;;
75167;SDS011;63748;48.088;11.476;2023-05-23T04:15:47;16.02;;;8.95;;
75167;SDS011;63748;48.088;11.476;2023-05-23T04:18:13;13.40;;;9.00;;
75167;SDS011;63748;48.088;11.476;2023-05-23T04:20:39;11.93;;;7.47;;
75167;SDS011;63748;48.088;11.476;2023-05-23T04:23:05;13.85;;;8.85;;
75167;SDS011;63748;48.088;11.476;2023-05-23T04:25:31;14.80;;;8.55;;
75167;SDS011;63748;48.088;11.476;2023-05-23T04:27:58;13.80;;;8.95;;
75167;SDS011;63748;48.088;11.476;2023-05-23T04:30:25;15.60;;;9.65;;
75167;SDS011;63748;48.088;11.476;2023-05-23T04:32:54;14.80;;;9.02;;
75167;SDS011;63748;48.088;11.476;2023-05-23T04:35:22;16.40;;;9.55;;
75167;SDS011;63748;48.088;11.476;2023-05-23T04:37:48;17.08;;;9.65;;
75167;SDS011;63748;48.088;11.476;2023-05-23T04:40:14;14.60;;;10.05;;
75167;SDS011;63748;48.088;11.476;2023-05-23T04:42:41;15.52;;;8.85;;
75167;SDS011;63748;48.088;11.476;2023-05-23T04:45:08;15.60;;;8.93;;
75167;SDS011;63748;48.088;11.476;2023-05-23T04:47:35;16.75;;;10.00;;
75167;SDS011;63748;48.088;11.476;2023-05-23T04:50:01;17.63;;;9.77;;
75167;SDS011;63748;48.088;11.476;2023-05-23T04:52:28;18.85;;;9.63;;
75167;SDS011;63748;48.088;11.476;2023-05-23T04:54:57;16.67;;;9.63;;
75167;SDS011;63748;48.088;11.476;2023-05-23T04:57:24;16.20;;;10.00;;
75167;SDS011;63748;48.088;11.476;2023-05-23T04:59:50;16.63;;;9.23;;
75167;SDS011;63748;48.088;11.476;2023-05-23T05:02:16;16.88;;;9.90;;
75167;SDS011;63748;48.088;11.476;2023-05-23T05:04:42;17.40;;;10.23;;
75167;SDS011;63748;48.088;11.476;2023-05-23T05:07:08;15.13;;;10.35;;
75167;SDS011;63748;48.088;11.476;2023-05-23T05:09:34;15.57;;;9.98;;
75167;SDS011;63748;48.088;11.476;2023-05-23T05:12:01;16.02;;;9.70;;
75167;SDS011;63748;48.088;11.476;2023-05-23T05:14:27;16.35;;;9.20;;
75167;SDS011;63748;48.088;11.476;2023-05-23T05:16:53;16.25;;;8.38;;
75167;SDS011;63748;48.088;11.476;2023-05-23T05:19:21;17.55;;;9.68;;
75167;SDS011;63748;48.088;11.476;2023-05-23T05:21:47;15.98;;;10.05;;
75167;SDS011;63748;48.088;11.476;2023-05-23T05:24:13;14.82;;;8.98;;
75167;SDS011;63748;48.088;11.476;2023-05-23T05:26:39;14.48;;;9.43;;
75167;SDS011;63748;48.088;11.476;2023-05-23T05:29:05;19.48;;;10.60;;
75167;SDS011;63748;48.088;11.476;2023-05-23T05:31:32;15.48;;;9.05;;
75167;SDS011;63748;48.088;11.476;2023-05-23T05:33:59;22.58;;;10.15;;
75167;SDS011;63748;48.088;11.476;2023-05-23T05:36:25;15.75;;;9.20;;
75167;SDS011;63748;48.088;11.476;2023-05-23T05:38:52;18.60;;;9.98;;
75167;SDS011;63748;48.088;11.476;2023-05-23T05:41:18;17.88;;;10.77;;
75167;SDS011;63748;48.088;11.476;2023-05-23T05:43:44;16.08;;;9.52;;
75167;SDS011;63748;48.088;11.476;2023-05-23T05:46:10;16.55;;;9.93;;
75167;SDS011;63748;48.088;11.476;2023-05-23T05:48:36;15.35;;;9.07;;
75167;SDS011;63748;48.088;11.476;2023-05-23T05:51:02;19.45;;;10.82;;
75167;SDS011;63748;48.088;11.476;2023-05-23T05:53:28;17.38;;;9.73;;
75167;SDS011;63748;48.088;11.476;2023-05-23T05:55:54;16.40;;;9.30;;
75167;SDS011;63748;48.088;11.476;2023-05-23T05:58:20;16.45;;;9.60;;
75167;SDS011;63748;48.088;11.476;2023-05-23T06:00:47;18.33;;;9.93;;
75167;SDS011;63748;48.088;11.476;2023-05-23T06:03:13;15.82;;;9.68;;
75167;SDS011;63748;48.088;11.476;2023-05-23T06:05:39;17.33;;;9.25;;
75167;SDS011;63748;48.088;11.476;2023-05-23T06:08:06;16.48;;;9.60;;
75167;SDS011;63748;48.088;11.476;2023-05-23T06:10:32;16.23;;;9.20;;
75167;SDS011;63748;48.088;11.476;2023-05-23T06:12:58;15.13;;;9.60;;
75167;SDS011;63748;48.088;11.476;2023-05-23T06:15:24;16.33;;;10.18;;
75167;SDS011;63748;48.088;11.476;2023-05-23T06:17:51;17.10;;;10.00;;
75167;SDS011;63748;48.088;11.476;2023-05-23T06:20:17;15.57;;;9.88;;
75167;SDS011;63748;48.088;11.476;2023-05-23T06:22:43;15.45;;;9.50;;
75167;SDS011;63748;48.088;11.476;2023-05-23T06:25:09;18.27;;;9.68;;
75167;SDS011;63748;48.088;11.476;2023-05-23T06:27:35;15.20;;;9.02;;
75167;SDS011;63748;48.088;11.476;2023-05-23T06:30:03;13.85;;;8.18;;
75167;SDS011;63748;48.088;11.476;2023-05-23T06:32:29;17.17;;;9.85;;
75167;SDS011;63748;48.088;11.476;2023-05-23T06:34:55;16.45;;;9.75;;
75167;SDS011;63748;48.088;11.476;2023-05-23T06:37:21;14.80;;;9.43;;
75167;SDS011;63748;48.088;11.476;2023-05-23T06:39:47;20.05;;;12.07;;
75167;SDS011;63748;48.088;11.476;2023-05-23T06:42:13;18.48;;;9.75;;
75167;SDS011;63748;48.088;11.476;2023-05-23T06:44:40;18.58;;;10.85;;
75167;SDS011;63748;48.088;11.476;2023-05-23T06:47:06;16.67;;;10.98;;
75167;SDS011;63748;48.088;11.476;2023-05-23T06:49:32;18.42;;;10.63;;
75167;SDS011;63748;48.088;11.476;2023-05-23T06:51:58;17.92;;;9.98;;
75167;SDS011;63748;48.088;11.476;2023-05-23T06:54:24;18.80;;;11.18;;
75167;SDS011;63748;48.088;11.476;2023-05-23T06:56:50;15.85;;;10.15;;
75167;SDS011;63748;48.088;11.476;2023-05-23T06:59:18;20.60;;;11.88;;
75167;SDS011;63748;48.088;11.476;2023-05-23T07:01:44;17.73;;;10.02;;
75167;SDS011;63748;48.088;11.476;2023-05-23T07:04:10;18.52;;;10.32;;
75167;SDS011;63748;48.088;11.476;2023-05-23T07:06:36;16.50;;;11.27;;
75167;SDS011;63748;48.088;11.476;2023-05-23T07:09:03;18.42;;;11.43;;
75167;SDS011;63748;48.088;11.476;2023-05-23T07:11:30;16.92;;;10.70;;
75167;SDS011;63748;48.088;11.476;2023-05-23T07:13:56;16.83;;;10.57;;
75167;SDS011;63748;48.088;11.476;2023-05-23T07:16:22;16.92;;;11.10;;
75167;SDS011;63748;48.088;11.476;2023-05-23T07:18:48;14.48;;;10.52;;
75167;SDS011;63748;48.088;11.476;2023-05-23T07:21:14;16.50;;;10.55;;
75167;SDS011;63748;48.088;11.476;2023-05-23T07:23:40;14.68;;;10.05;;
75167;SDS011;63748;48.088;11.476;2023-05-23T07:26:06;18.48;;;11.13;;
75167;SDS011;63748;48.088;11.476;2023-05-23T07:28:33;19.40;;;11.48;;
75167;SDS011;63748;48.088;11.476;2023-05-23T07:31:00;17.85;;;11.10;;
75167;SDS011;63748;48.088;11.476;2023-05-23T07:33:26;16.80;;;10.77;;
75167;SDS011;63748;48.088;11.476;2023-05-23T07:35:52;19.88;;;11.75;;
75167;SDS011;63748;48.088;11.476;2023-05-23T07:38:18;17.60;;;11.05;;
75167;SDS011;63748;48.088;11.476;2023-05-23T07:40:45;20.88;;;11.20;;
75167;SDS011;63748;48.088;11.476;2023-05-23T07:43:11;22.02;;;12.55;;
75167;SDS011;63748;48.088;11.476;2023-05-23T07:45:37;20.60;;;12.40;;
75167;SDS011;63748;48.088;11.476;2023-05-23T07:48:03;18.95;;;12.32;;
75167;SDS011;63748;48.088;11.476;2023-05-23T07:50:29;19.33;;;11.52;;
75167;SDS011;63748;48.088;11.476;2023-05-23T07:52:55;19.10;;;11.52;;
75167;SDS011;63748;48.088;11.476;2023-05-23T07:55:21;21.30;;;11.68;;
75167;SDS011;63748;48.088;11.476;2023-05-23T07:57:48;20.55;;;11.13;;
75167;SDS011;63748;48.088;11.476;2023-05-23T08:00:14;18.98;;;11.95;;
75167;SDS011;63748;48.088;11.476;2023-05-23T08:02:41;22.00;;;13.07;;
75167;SDS011;63748;48.088;11.476;2023-05-23T08:05:07;22.90;;;12.32;;
75167;SDS011;63748;48.088;11.476;2023-05-23T08:07:33;21.52;;;13.00;;
75167;SDS011;63748;48.088;11.476;2023-05-23T08:09:59;24.23;;;12.10;;
75167;SDS011;63748;48.088;11.476;2023-05-23T08:12:25;26.10;;;13.95;;
75167;SDS011;63748;48.088;11.476;2023-05-23T08:14:51;22.35;;;14.00;;
75167;SDS011;63748;48.088;11.476;2023-05-23T08:17:17;20.08;;;12.38;;
75167;SDS011;63748;48.088;11.476;2023-05-23T08:19:43;21.38;;;13.55;;
75167;SDS011;63748;48.088;11.476;2023-05-23T08:22:10;20.83;;;12.35;;
75167;SDS011;63748;48.088;11.476;2023-05-23T08:24:36;20.23;;;11.85;;
75167;SDS011;63748;48.088;11.476;2023-05-23T08:27:02;15.52;;;10.38;;
75167;SDS011;63748;48.088;11.476;2023-05-23T08:29:28;18.63;;;11.57;;
75167;SDS011;63748;48.088;11.476;2023-05-23T08:31:54;20.00;;;11.40;;
75167;SDS011;63748;48.088;11.476;2023-05-23T08:34:20;21.08;;;12.32;;
75167;SDS011;63748;48.088;11.476;2023-05-23T08:36:46;20.92;;;11.70;;
75167;SDS011;63748;48.088;11.476;2023-05-23T08:39:12;17.63;;;11.85;;
75167;SDS011;63748;48.088;11.476;2023-05-23T08:41:38;18.80;;;11.40;;
75167;SDS011;63748;48.088;11.476;2023-05-23T08:44:04;19.75;;;11.23;;
75167;SDS011;63748;48.088;11.476;2023-05-23T08:46:31;20.20;;;11.80;;
75167;SDS011;63748;48.088;11.476;2023-05-23T08:48:58;21.30;;;12.25;;
75167;SDS011;63748;48.088;11.476;2023-05-23T08:51:25;22.52;;;12.80;;
75167;SDS011;63748;48.088;11.476;2023-05-23T08:53:52;24.85;;;13.80;;
75167;SDS011;63748;48.088;11.476;2023-05-23T08:58:46;20.52;;;12.68;;
75167;SDS011;63748;48.088;11.476;2023-05-23T09:01:12;19.83;;;10.98;;
75167;SDS011;63748;48.088;11.476;2023-05-23T09:03:39;18.67;;;11.82;;
75167;SDS011;63748;48.088;11.476;2023-05-23T09:06:08;18.52;;;11.55;;
75167;SDS011;63748;48.088;11.476;2023-05-23T09:08:35;20.70;;;12.57;;
75167;SDS011;63748;48.088;11.476;2023-05-23T09:11:02;20.02;;;12.82;;
75167;SDS011;63748;48.088;11.476;2023-05-23T09:13:29;21.13;;;12.63;;
75167;SDS011;63748;48.088;11.476;2023-05-23T09:18:25;21.02;;;12.30;;
75167;SDS011;63748;48.088;11.476;2023-05-23T09:20:51;19.83;;;11.55;;
75167;SDS011;63748;48.088;11.476;2023-05-23T09:23:17;20.35;;;12.07;;
75167;SDS011;63748;48.088;11.476;2023-05-23T09:25:46;18.60;;;12.60;;
75167;SDS011;63748;48.088;11.476;2023-05-23T09:28:12;19.23;;;12.57;;
75167;SDS011;63748;48.088;11.476;2023-05-23T09:30:38;18.70;;;12.57;;
75167;SDS011;63748;48.088;11.476;2023-05-23T09:33:04;17.77;;;10.63;;
75167;SDS011;63748;48.088;11.476;2023-05-23T09:35:30;17.10;;;11.38;;
75167;SDS011;63748;48.088;11.476;2023-05-23T09:37:57;22.45;;;13.63;;
75167;SDS011;63748;48.088;11.476;2023-05-23T09:40:27;22.30;;;12.63;;
75167;SDS011;63748;48.088;11.476;2023-05-23T09:42:55;21.55;;;12.25;;
75167;SDS011;63748;48.088;11.476;2023-05-23T09:45:28;22.65;;;13.68;;
75167;SDS011;63748;48.088;11.476;2023-05-23T09:47:55;22.17;;;12.35;;
75167;SDS011;63748;48.088;11.476;2023-05-23T09:50:21;22.00;;;13.20;;
75167;SDS011;63748;48.088;11.476;2023-05-23T09:52:48;23.20;;;13.45;;
75167;SDS011;63748;48.088;11.476;2023-05-23T09:55:15;24.15;;;14.05;;
75167;SDS011;63748;48.088;11.476;2023-05-23T09:57:41;23.58;;;14.70;;
75167;SDS011;63748;48.088;11.476;2023-05-23T10:00:08;23.48;;;13.98;;
75167;SDS011;63748;48.088;11.476;2023-05-23T10:05:04;24.40;;;14.57;;
75167;SDS011;63748;48.088;11.476;2023-05-23T10:07:31;24.63;;;14.25;;
75167;SDS011;63748;48.088;11.476;2023-05-23T10:10:00;24.30;;;14.27;;
75167;SDS011;63748;48.088;11.476;2023-05-23T10:14:54;25.52;;;13.07;;
75167;SDS011;63748;48.088;11.476;2023-05-23T10:20:12;22.75;;;14.50;;
75167;SDS011;63748;48.088;11.476;2023-05-23T10:22:39;24.77;;;13.90;;
75167;SDS011;63748;48.088;11.476;2023-05-23T10:25:07;25.98;;;14.50;;
75167;SDS011;63748;48.088;11.476;2023-05-23T10:27:37;23.52;;;14.15;;
75167;SDS011;63748;48.088;11.476;2023-05-23T10:30:04;19.98;;;12.52;;
75167;SDS011;63748;48.088;11.476;2023-05-23T10:32:31;22.42;;;13.70;;
75167;SDS011;63748;48.088;11.476;2023-05-23T10:35:09;25.80;;;15.45;;
75167;SDS011;63748;48.088;11.476;2023-05-23T10:37:48;25.45;;;15.18;;
75167;SDS011;63748;48.088;11.476;2023-05-23T10:45:22;28.10;;;16.85;;
75167;SDS011;63748;48.088;11.476;2023-05-23T10:47:51;26.45;;;15.77;;
75167;SDS011;63748;48.088;11.476;2023-05-23T10:50:33;27.45;;;16.10;;
75167;SDS011;63748;48.088;11.476;2023-05-23T10:53:01;26.65;;;14.88;;
75167;SDS011;63748;48.088;11.476;2023-05-23T10:55:31;26.35;;;15.55;;
75167;SDS011;63748;48.088;11.476;2023-05-23T11:00:53;25.02;;;14.32;;
75167;SDS011;63748;48.088;11.476;2023-05-23T11:03:33;21.88;;;13.65;;
75167;SDS011;63748;48.088;11.476;2023-05-23T11:06:00;25.40;;;14.07;;
75167;SDS011;63748;48.088;11.476;2023-05-23T11:08:26;24.60;;;15.10;;
75167;SDS011;63748;48.088;11.476;2023-05-23T11:11:01;21.63;;;12.70;;
75167;SDS011;63748;48.088;11.476;2023-05-23T11:16:22;19.75;;;12.27;;
75167;SDS011;63748;48.088;11.476;2023-05-23T11:18:48;18.05;;;12.55;;
75167;SDS011;63748;48.088;11.476;2023-05-23T11:21:14;20.13;;;12.80;;
75167;SDS011;63748;48.088;11.476;2023-05-23T11:23:41;20.33;;;12.45;;
75167;SDS011;63748;48.088;11.476;2023-05-23T11:26:29;21.67;;;12.30;;
75167;SDS011;63748;48.088;11.476;2023-05-23T11:28:56;18.08;;;11.55;;
75167;SDS011;63748;48.088;11.476;2023-05-23T11:31:22;17.40;;;11.18;;
75167;SDS011;63748;48.088;11.476;2023-05-23T11:33:52;16.13;;;11.35;;
75167;SDS011;63748;48.088;11.476;2023-05-23T11:36:20;18.85;;;11.65;;
75167;SDS011;63748;48.088;11.476;2023-05-23T11:38:46;16.15;;;11.32;;
75167;SDS011;63748;48.088;11.476;2023-05-23T11:41:12;15.38;;;10.85;;
75167;SDS011;63748;48.088;11.476;2023-05-23T11:43:47;19.23;;;12.30;;
75167;SDS011;63748;48.088;11.476;2023-05-23T11:46:14;14.88;;;10.68;;
75167;SDS011;63748;48.088;11.476;2023-05-23T11:48:44;16.23;;;10.73;;
75167;SDS011;63748;48.088;11.476;2023-05-23T11:51:10;22.30;;;12.30;;
75167;SDS011;63748;48.088;11.476;2023-05-23T11:53:37;21.05;;;11.82;;
75167;SDS011;63748;48.088;11.476;2023-05-23T11:56:03;15.68;;;10.00;;
75167;SDS011;63748;48.088;11.476;2023-05-23T11:58:30;14.52;;;9.75;;
75167;SDS011;63748;48.088;11.476;2023-05-23T12:00:59;14.50;;;9.27;;
75167;SDS011;63748;48.088;11.476;2023-05-23T12:03:26;14.63;;;9.82;;
75167;SDS011;63748;48.088;11.476;2023-05-23T12:05:55;13.80;;;9.07;;
75167;SDS011;63748;48.088;11.476;2023-05-23T12:08:21;13.05;;;9.00;;
75167;SDS011;63748;48.088;11.476;2023-05-23T12:10:52;16.20;;;9.98;;
75167;SDS011;63748;48.088;11.476;2023-05-23T12:13:19;12.18;;;9.10;;
75167;SDS011;63748;48.088;11.476;2023-05-23T12:15:48;15.02;;;9.25;;
75167;SDS011;63748;48.088;11.476;2023-05-23T12:18:14;18.10;;;10.35;;
75167;SDS011;63748;48.088;11.476;2023-05-23T12:20:40;14.48;;;9.50;;
75167;SDS011;63748;48.088;11.476;2023-05-23T12:23:06;15.70;;;9.98;;
75167;SDS011;63748;48.088;11.476;2023-05-23T12:25:39;16.63;;;9.48;;
75167;SDS011;63748;48.088;11.476;2023-05-23T12:28:08;16.35;;;10.10;;
75167;SDS011;63748;48.088;11.476;2023-05-23T12:30:41;17.13;;;9.38;;
75167;SDS011;63748;48.088;11.476;2023-05-23T12:33:07;13.20;;;9.27;;
75167;SDS011;63748;48.088;11.476;2023-05-23T12:35:34;11.57;;;8.40;;
75167;SDS011;63748;48.088;11.476;2023-05-23T12:38:00;14.55;;;8.40;;
75167;SDS011;63748;48.088;11.476;2023-05-23T12:40:27;13.48;;;9.35;;
75167;SDS011;63748;48.088;11.476;2023-05-23T12:42:54;15.65;;;9.98;;
75167;SDS011;63748;48.088;11.476;2023-05-23T12:45:21;18.08;;;10.70;;
75167;SDS011;63748;48.088;11.476;2023-05-23T12:47:47;15.15;;;10.57;;
75167;SDS011;63748;48.088;11.476;2023-05-23T12:50:13;17.05;;;8.73;;
75167;SDS011;63748;48.088;11.476;2023-05-23T12:52:39;15.25;;;9.32;;
75167;SDS011;63748;48.088;11.476;2023-05-23T12:55:06;16.33;;;10.45;;
75167;SDS011;63748;48.088;11.476;2023-05-23T12:57:33;16.23;;;9.02;;
75167;SDS011;63748;48.088;11.476;2023-05-23T12:59:59;12.90;;;8.77;;
75167;SDS011;63748;48.088;11.476;2023-05-23T13:02:26;13.23;;;8.88;;
75167;SDS011;63748;48.088;11.476;2023-05-23T13:04:53;10.65;;;7.80;;
75167;SDS011;63748;48.088;11.476;2023-05-23T13:07:20;14.23;;;8.50;;
75167;SDS011;63748;48.088;11.476;2023-05-23T13:09:46;11.93;;;8.15;;
75167;SDS011;63748;48.088;11.476;2023-05-23T13:12:12;11.57;;;8.27;;
75167;SDS011;63748;48.088;11.476;2023-05-23T13:14:39;11.23;;;7.70;;
75167;SDS011;63748;48.088;11.476;2023-05-23T13:17:05;10.00;;;7.70;;
75167;SDS011;63748;48.088;11.476;2023-05-23T13:19:31;11.45;;;7.63;;
75167;SDS011;63748;48.088;11.476;2023-05-23T13:21:57;12.90;;;7.65;;
75167;SDS011;63748;48.088;11.476;2023-05-23T13:24:24;11.55;;;7.97;;
75167;SDS011;63748;48.088;11.476;2023-05-23T13:26:50;11.60;;;7.50;;
75167;SDS011;63748;48.088;11.476;2023-05-23T13:29:16;11.70;;;7.03;;
75167;SDS011;63748;48.088;11.476;2023-05-23T13:31:42;10.70;;;7.65;;
75167;SDS011;63748;48.088;11.476;2023-05-23T13:34:09;10.30;;;7.75;;
75167;SDS011;63748;48.088;11.476;2023-05-23T13:36:35;10.45;;;7.18;;
75167;SDS011;63748;48.088;11.476;2023-05-23T13:39:01;9.25;;;7.80;;
75167;SDS011;63748;48.088;11.476;2023-05-23T13:41:27;13.07;;;7.95;;
75167;SDS011;63748;48.088;11.476;2023-05-23T13:43:53;16.70;;;9.13;;
75167;SDS011;63748;48.088;11.476;2023-05-23T13:46:19;12.40;;;8.07;;
75167;SDS011;63748;48.088;11.476;2023-05-23T13:48:45;13.65;;;7.18;;
75167;SDS011;63748;48.088;11.476;2023-05-23T13:51:11;11.00;;;7.90;;
75167;SDS011;63748;48.088;11.476;2023-05-23T13:53:37;11.00;;;7.32;;
75167;SDS011;63748;48.088;11.476;2023-05-23T13:56:03;12.15;;;8.20;;
75167;SDS011;63748;48.088;11.476;2023-05-23T13:58:29;15.00;;;9.23;;
75167;SDS011;63748;48.088;11.476;2023-05-23T14:00:55;13.10;;;8.73;;
75167;SDS011;63748;48.088;11.476;2023-05-23T14:03:22;14.43;;;8.38;;
75167;SDS011;63748;48.088;11.476;2023-05-23T14:05:49;10.43;;;6.88;;
75167;SDS011;63748;48.088;11.476;2023-05-23T14:08:15;10.52;;;7.47;;
75167;SDS011;63748;48.088;11.476;2023-05-23T14:10:41;10.77;;;6.80;;
75167;SDS011;63748;48.088;11.476;2023-05-23T14:13:07;8.60;;;5.97;;
75167;SDS011;63748;48.088;11.476;2023-05-23T14:15:33;13.43;;;8.20;;
75167;SDS011;63748;48.088;11.476;2023-05-23T14:18:00;10.07;;;7.50;;
75167;SDS011;63748;48.088;11.476;2023-05-23T14:20:26;8.93;;;6.45;;
75167;SDS011;63748;48.088;11.476;2023-05-23T14:22:53;11.18;;;7.30;;
75167;SDS011;63748;48.088;11.476;2023-05-23T14:25:19;9.48;;;6.18;;
75167;SDS011;63748;48.088;11.476;2023-05-23T14:27:46;9.68;;;6.75;;
75167;SDS011;63748;48.088;11.476;2023-05-23T14:30:12;10.65;;;6.20;;
75167;SDS011;63748;48.088;11.476;2023-05-23T14:32:38;10.65;;;6.60;;
75167;SDS011;63748;48.088;11.476;2023-05-23T14:35:05;10.65;;;7.07;;
75167;SDS011;63748;48.088;11.476;2023-05-23T14:37:31;9.55;;;6.32;;
75167;SDS011;63748;48.088;11.476;2023-05-23T14:39:58;9.73;;;6.10;;
75167;SDS011;63748;48.088;11.476;2023-05-23T14:42:24;11.05;;;5.88;;
75167;SDS011;63748;48.088;11.476;2023-05-23T14:44:51;10.93;;;6.57;;
75167;SDS011;63748;48.088;11.476;2023-05-23T14:47:17;10.38;;;6.28;;
75167;SDS011;63748;48.088;11.476;2023-05-23T14:49:43;9.43;;;6.40;;